Time;durP1;ratioP1;P1;durP2;ratioP2;P2;SDS_P1;SDS_P2;PMS_P1;PMS_P2;Temp;Humidity;BMP_temperature;BMP_pressure;BME280_temperature;BME280_humidity;BME280_pressure;Samples;Min_cycle;Max_cycle;Signal;HPM_P1;HPM_P2
2023/12/16 00:00:38;;;;;;;1999.90;999.90;;;8.50;1.00;;;;;;4992411;28;20572;-71
2023/12/16 00:03:04;;;;;;;1999.90;999.90;;;8.50;1.00;;;;;;4992653;28;20189;-71
2023/12/16 00:05:30;;;;;;;1999.90;999.90;;;8.60;1.00;;;;;;4992639;28;20181;-69
2023/12/16 00:07:56;;;;;;;1999.90;999.90;;;8.70;1.00;;;;;;4992293;28;20460;-70
2023/12/16 00:10:22;;;;;;;1999.90;999.90;;;8.60;1.00;;;;;;4992182;28;20456;-70
2023/12/16 00:12:47;;;;;;;1999.90;999.90;;;8.60;1.00;;;;;;4992385;28;20424;-71
2023/12/16 00:15:14;;;;;;;1999.90;999.90;;;8.70;1.00;;;;;;4992470;28;20641;-71
2023/12/16 00:17:40;;;;;;;1999.90;999.90;;;8.50;1.00;;;;;;4992541;28;20194;-71
2023/12/16 00:20:06;;;;;;;1999.90;999.90;;;8.50;1.00;;;;;;4992333;28;20410;-72
2023/12/16 00:22:32;;;;;;;1999.90;999.90;;;8.50;1.00;;;;;;4992310;28;20456;-70
2023/12/16 00:24:57;;;;;;;1999.90;999.90;;;8.50;1.00;;;;;;4992328;28;20452;-71
2023/12/16 00:27:23;;;;;;;1999.90;999.90;;;8.70;1.00;;;;;;4992257;28;20547;-71
2023/12/16 00:29:48;;;;;;;1999.90;999.90;;;8.40;1.00;;;;;;4992122;28;20198;-70
2023/12/16 00:32:14;;;;;;;1999.90;999.90;;;8.40;1.00;;;;;;4992386;28;20232;-70
2023/12/16 00:34:40;;;;;;;1999.90;999.90;;;8.30;1.00;;;;;;4992386;28;20174;-71
2023/12/16 00:37:08;;;;;;;1999.90;999.90;;;8.30;1.00;;;;;;4992321;28;20179;-71
2023/12/16 00:39:34;;;;;;;1999.90;999.90;;;8.30;1.00;;;;;;4991955;28;20194;-71
2023/12/16 00:42:00;;;;;;;1999.90;999.90;;;8.30;1.00;;;;;;4992167;28;20464;-72
2023/12/16 00:44:25;;;;;;;1999.90;999.90;;;8.20;1.00;;;;;;4992206;28;20177;-71
2023/12/16 00:46:51;;;;;;;1999.90;999.90;;;8.30;1.00;;;;;;4992154;28;20405;-71
2023/12/16 00:49:17;;;;;;;1999.90;999.90;;;8.30;1.00;;;;;;4991956;28;20191;-71
2023/12/16 00:51:42;;;;;;;1999.90;999.90;;;8.20;1.00;;;;;;4992213;28;20210;-70
2023/12/16 00:54:09;;;;;;;1999.90;999.90;;;8.30;1.00;;;;;;4992008;28;20723;-71
2023/12/16 00:56:34;;;;;;;1999.90;999.90;;;8.30;1.00;;;;;;4992095;28;20465;-71
2023/12/16 00:59:00;;;;;;;1999.90;999.90;;;8.20;1.00;;;;;;4992079;28;20452;-71
2023/12/16 01:01:25;;;;;;;1999.90;999.90;;;8.30;1.00;;;;;;4993942;28;20261;-71
2023/12/16 01:03:51;;;;;;;1999.90;999.90;;;8.30;1.00;;;;;;4996757;28;20175;-71
2023/12/16 01:06:16;;;;;;;1999.90;999.90;;;8.30;1.00;;;;;;4996645;28;20183;-69
2023/12/16 01:08:43;;;;;;;1999.90;999.90;;;8.30;1.00;;;;;;4995922;28;20295;-72
2023/12/16 01:11:11;;;;;;;1999.90;999.90;;;8.50;1.00;;;;;;4996383;28;20312;-71
2023/12/16 01:13:37;;;;;;;1999.90;999.90;;;8.30;1.00;;;;;;4996695;28;20422;-70
2023/12/16 01:16:03;;;;;;;1999.90;999.90;;;8.20;1.00;;;;;;4996488;28;20981;-71
2023/12/16 01:18:29;;;;;;;1999.90;999.90;;;8.20;1.00;;;;;;4996518;28;20519;-70
2023/12/16 01:20:55;;;;;;;1999.90;999.90;;;8.30;1.00;;;;;;4996449;28;20516;-71
2023/12/16 01:23:20;;;;;;;1999.90;999.90;;;8.20;1.00;;;;;;4996063;28;20425;-71
2023/12/16 01:25:46;;;;;;;1999.90;999.90;;;8.20;1.00;;;;;;4996431;28;20181;-71
2023/12/16 01:28:12;;;;;;;1999.90;999.90;;;8.20;1.00;;;;;;4996194;28;20230;-71
2023/12/16 01:30:38;;;;;;;1999.90;999.90;;;8.40;10.40;;;;;;4995834;28;20679;-71
2023/12/16 01:33:03;;;;;;;1999.90;999.90;;;8.10;2.50;;;;;;4996349;28;20264;-71
2023/12/16 01:35:29;;;;;;;1999.90;999.90;;;8.10;5.20;;;;;;4996505;28;20169;-69
2023/12/16 01:37:55;;;;;;;1999.90;999.90;;;8.10;6.00;;;;;;4996140;28;20189;-71
2023/12/16 01:40:20;;;;;;;1999.90;999.90;;;8.10;3.70;;;;;;4995493;28;20186;-70
2023/12/16 01:42:46;;;;;;;1999.90;999.90;;;8.10;1.00;;;;;;4996037;28;20174;-71
2023/12/16 01:45:13;;;;;;;1999.90;999.90;;;8.00;1.00;;;;;;4996069;28;20471;-71
2023/12/16 01:47:39;;;;;;;1999.90;999.90;;;8.10;1.00;;;;;;4995807;28;20440;-71
2023/12/16 01:50:06;;;;;;;1999.90;999.90;;;8.10;1.00;;;;;;4995517;28;20452;-72
2023/12/16 01:52:31;;;;;;;1999.90;999.90;;;8.10;1.00;;;;;;4995532;28;20496;-71
2023/12/16 01:54:57;;;;;;;1999.90;999.90;;;8.10;1.00;;;;;;4995792;28;20616;-71
2023/12/16 01:57:23;;;;;;;1999.90;999.90;;;8.20;1.00;;;;;;4995998;28;20185;-71
2023/12/16 01:59:49;;;;;;;1999.90;999.90;;;8.10;1.00;;;;;;4995356;28;20186;-71
2023/12/16 02:02:15;;;;;;;1999.90;999.90;;;8.10;1.00;;;;;;4995390;28;20257;-71
2023/12/16 02:04:41;;;;;;;1999.90;999.90;;;8.10;1.00;;;;;;4995611;28;20797;-71
2023/12/16 02:07:06;;;;;;;1999.90;999.90;;;8.20;1.00;;;;;;4995032;28;20412;-71
2023/12/16 02:09:32;;;;;;;1999.90;999.90;;;8.10;1.00;;;;;;4995162;28;20197;-70
2023/12/16 02:11:57;;;;;;;1999.90;999.90;;;8.20;1.00;;;;;;4995256;28;20174;-71
2023/12/16 02:14:23;;;;;;;1999.90;999.90;;;8.20;1.00;;;;;;4995565;28;20173;-71
2023/12/16 02:16:49;;;;;;;1999.90;999.90;;;8.40;1.00;;;;;;4995329;28;20174;-72
2023/12/16 02:19:23;;;;;;;1999.90;999.90;;;8.20;1.00;;;;;;4995059;28;20198;-70
2023/12/16 02:21:49;;;;;;;1999.90;999.90;;;8.20;1.00;;;;;;4995276;28;20182;-71
2023/12/16 02:24:14;;;;;;;1999.90;999.90;;;8.30;1.00;;;;;;4995166;28;20463;-71
2023/12/16 02:26:40;;;;;;;1999.90;999.90;;;8.20;1.00;;;;;;4995099;28;20657;-69
2023/12/16 02:29:06;;;;;;;1999.90;999.90;;;8.20;1.00;;;;;;4994904;28;20572;-71
2023/12/16 02:31:31;;;;;;;1999.90;999.90;;;8.20;1.00;;;;;;4994829;28;20214;-72
2023/12/16 02:33:57;;;;;;;1999.90;999.90;;;8.20;1.00;;;;;;4994834;28;20171;-71
2023/12/16 02:36:23;;;;;;;1999.90;999.90;;;8.20;1.00;;;;;;4994512;28;20645;-71
2023/12/16 02:38:49;;;;;;;1999.90;999.90;;;8.20;1.00;;;;;;4994450;28;20245;-71
2023/12/16 02:41:15;;;;;;;1999.90;999.90;;;8.20;1.00;;;;;;4994975;28;20798;-71
2023/12/16 02:43:41;;;;;;;1999.90;999.90;;;8.10;1.00;;;;;;4994639;28;20178;-71
2023/12/16 02:46:06;;;;;;;1999.90;999.90;;;8.50;1.00;;;;;;4994433;28;20207;-71
2023/12/16 02:48:32;;;;;;;1999.90;999.90;;;8.30;1.00;;;;;;4994512;28;20198;-71
2023/12/16 02:50:57;;;;;;;1999.90;999.90;;;8.20;1.00;;;;;;4993477;28;20688;-70
2023/12/16 02:53:23;;;;;;;1999.90;999.90;;;8.30;1.00;;;;;;4993688;28;20190;-70
2023/12/16 02:55:48;;;;;;;1999.90;999.90;;;8.30;1.00;;;;;;4993697;28;20170;-70
2023/12/16 02:58:14;;;;;;;1999.90;999.90;;;8.40;1.00;;;;;;4993582;28;20189;-71
2023/12/16 03:00:39;;;;;;;1999.90;999.90;;;8.30;1.00;;;;;;4993529;28;20188;-71
2023/12/16 03:03:05;;;;;;;1999.90;999.90;;;8.30;1.00;;;;;;4993482;28;20178;-71
2023/12/16 03:05:30;;;;;;;1999.90;999.90;;;8.30;1.00;;;;;;4993455;28;20173;-70
2023/12/16 03:07:56;;;;;;;1999.90;999.90;;;8.30;1.00;;;;;;4993269;28;20276;-71
2023/12/16 03:10:21;;;;;;;1999.90;999.90;;;8.30;1.00;;;;;;4993307;28;20676;-71
2023/12/16 03:12:47;;;;;;;1999.90;999.90;;;8.30;1.00;;;;;;4993272;28;20535;-71
2023/12/16 03:15:13;;;;;;;1999.90;999.90;;;8.30;1.00;;;;;;4993367;28;20178;-70
2023/12/16 03:17:38;;;;;;;1999.90;999.90;;;8.30;1.00;;;;;;4993240;28;20194;-71
2023/12/16 03:20:05;;;;;;;1999.90;999.90;;;8.30;1.00;;;;;;4992984;28;20212;-71
2023/12/16 03:22:31;;;;;;;1999.90;999.90;;;8.30;1.00;;;;;;4993019;28;20738;-70
2023/12/16 03:24:56;;;;;;;1999.90;999.90;;;8.20;1.00;;;;;;4992609;28;20452;-71
2023/12/16 03:27:22;;;;;;;1999.90;999.90;;;8.20;1.00;;;;;;4993033;28;20174;-71
2023/12/16 03:29:47;;;;;;;1999.90;999.90;;;8.30;1.00;;;;;;4992827;28;20193;-71
2023/12/16 03:32:13;;;;;;;1999.90;999.90;;;8.30;1.00;;;;;;4993029;28;20642;-70
2023/12/16 03:34:39;;;;;;;1999.90;999.90;;;8.30;1.00;;;;;;4993132;28;20170;-69
2023/12/16 03:37:04;;;;;;;1999.90;999.90;;;8.30;1.00;;;;;;4993221;28;20208;-69
2023/12/16 03:39:30;;;;;;;1999.90;999.90;;;8.30;1.00;;;;;;4992714;28;20269;-69
2023/12/16 03:41:55;;;;;;;1999.90;999.90;;;8.40;1.00;;;;;;4992828;28;20178;-74
2023/12/16 03:44:21;;;;;;;1999.90;999.90;;;8.30;1.00;;;;;;4992857;28;20665;-69
2023/12/16 03:46:46;;;;;;;1999.90;999.90;;;8.40;1.00;;;;;;4992817;28;20174;-69
2023/12/16 03:49:12;;;;;;;1999.90;999.90;;;8.30;1.00;;;;;;4992437;28;20201;-68
2023/12/16 03:51:37;;;;;;;1999.90;999.90;;;8.20;1.00;;;;;;4992581;28;20212;-71
2023/12/16 03:54:03;;;;;;;1999.90;999.90;;;8.20;1.00;;;;;;4992670;28;20182;-69
2023/12/16 03:56:29;;;;;;;1999.90;999.90;;;8.20;1.00;;;;;;4992835;28;20664;-69
2023/12/16 03:58:55;;;;;;;1999.90;999.90;;;8.20;1.00;;;;;;4992374;28;20186;-69
2023/12/16 04:01:21;;;;;;;1999.90;999.90;;;8.30;1.00;;;;;;4992649;28;20423;-69
2023/12/16 04:03:46;;;;;;;1999.90;999.90;;;8.30;1.00;;;;;;4992464;28;20185;-69
2023/12/16 04:06:12;;;;;;;1999.90;999.90;;;8.20;1.00;;;;;;4992563;28;20177;-71
2023/12/16 04:08:39;;;;;;;1999.90;999.90;;;8.20;1.00;;;;;;4992295;28;20645;-71
2023/12/16 04:11:05;;;;;;;1999.90;999.90;;;8.50;1.00;;;;;;4992592;28;20468;-70
2023/12/16 04:13:30;;;;;;;1999.90;999.90;;;8.20;1.00;;;;;;4992410;28;20908;-70
2023/12/16 04:15:56;;;;;;;1999.90;999.90;;;8.20;1.00;;;;;;4992545;28;20413;-69
2023/12/16 04:18:21;;;;;;;1999.90;999.90;;;8.20;1.00;;;;;;4992459;28;20197;-69
2023/12/16 04:20:47;;;;;;;1999.90;999.90;;;8.20;1.00;;;;;;4992229;28;20170;-69
2023/12/16 04:23:12;;;;;;;1999.90;999.90;;;8.10;99.90;;;;;;4992349;28;20177;-70
2023/12/16 04:25:38;;;;;;;1999.90;999.90;;;8.20;1.00;;;;;;4992408;28;20178;-70
2023/12/16 04:28:04;;;;;;;1999.90;999.90;;;8.20;1.00;;;;;;4992359;28;20202;-69
2023/12/16 04:30:29;;;;;;;1999.90;999.90;;;8.20;1.00;;;;;;4992232;28;20189;-69
2023/12/16 04:32:55;;;;;;;1999.90;999.90;;;8.10;99.90;;;;;;4992223;28;20174;-69
2023/12/16 04:35:20;;;;;;;1999.90;999.90;;;8.20;1.00;;;;;;4992297;28;20256;-70
2023/12/16 04:37:46;;;;;;;1999.90;999.90;;;8.20;1.00;;;;;;4995127;28;20190;-69
2023/12/16 04:40:12;;;;;;;1999.90;999.90;;;8.20;99.90;;;;;;4995994;28;20187;-69
2023/12/16 04:42:41;;;;;;;1999.90;999.90;;;8.20;99.90;;;;;;4996104;28;20181;-69
2023/12/16 04:45:07;;;;;;;1999.90;999.90;;;8.10;99.90;;;;;;4996146;28;20166;-70
2023/12/16 04:47:32;;;;;;;1999.90;999.90;;;8.30;1.00;;;;;;4995996;28;20423;-71
2023/12/16 04:49:58;;;;;;;1999.90;999.90;;;8.20;99.90;;;;;;4995750;28;20468;-69
2023/12/16 04:52:24;;;;;;;1999.90;999.90;;;8.30;1.00;;;;;;4995955;28;20167;-70
2023/12/16 04:54:49;;;;;;;1999.90;999.90;;;8.30;1.00;;;;;;4995920;28;20197;-69
2023/12/16 04:57:15;;;;;;;1999.90;999.90;;;8.30;99.90;;;;;;4995895;28;20178;-70
2023/12/16 04:59:40;;;;;;;1999.90;999.90;;;8.30;1.00;;;;;;4995583;28;20566;-69
2023/12/16 05:02:06;;;;;;;1999.90;999.90;;;8.30;1.00;;;;;;4995785;28;20232;-70
2023/12/16 05:04:31;;;;;;;1999.90;999.90;;;8.30;1.00;;;;;;4994705;28;20187;-69
2023/12/16 05:06:57;;;;;;;1999.90;999.90;;;8.30;99.90;;;;;;4995550;28;20175;-70
2023/12/16 05:09:22;;;;;;;1999.90;999.90;;;8.30;99.90;;;;;;4995493;28;20221;-69
2023/12/16 05:11:48;;;;;;;1999.90;999.90;;;8.40;99.90;;;;;;4995561;28;20206;-69
2023/12/16 05:14:13;;;;;;;1999.90;999.90;;;8.20;99.90;;;;;;4995527;28;20175;-69
2023/12/16 05:16:39;;;;;;;1999.90;999.90;;;8.30;99.90;;;;;;4995458;28;20177;-69
2023/12/16 05:19:05;;;;;;;1999.90;999.90;;;8.40;99.90;;;;;;4995184;28;20222;-70
2023/12/16 05:21:30;;;;;;;1999.90;999.90;;;8.50;99.90;;;;;;4995492;28;20536;-69
2023/12/16 05:23:56;;;;;;;1999.90;999.90;;;8.40;99.90;;;;;;4995293;28;20197;-70
2023/12/16 05:26:22;;;;;;;1999.90;999.90;;;8.20;99.90;;;;;;4995454;28;20191;-69
2023/12/16 05:28:48;;;;;;;1999.90;999.90;;;8.20;99.90;;;;;;4995106;28;20425;-69
2023/12/16 05:31:13;;;;;;;1999.90;999.90;;;8.20;99.90;;;;;;4995187;28;20194;-71
2023/12/16 05:33:39;;;;;;;1999.90;999.90;;;8.20;99.90;;;;;;4995138;28;20179;-70
2023/12/16 05:36:06;;;;;;;1999.90;999.90;;;8.20;99.90;;;;;;4995175;28;20228;-69
2023/12/16 05:38:31;;;;;;;1999.90;999.90;;;8.30;99.90;;;;;;4995220;28;20612;-70
2023/12/16 05:40:57;;;;;;;1999.90;999.90;;;8.60;99.90;;;;;;4994940;28;20408;-69
2023/12/16 05:43:23;;;;;;;1999.90;999.90;;;8.30;99.90;;;;;;4995075;28;20170;-69
2023/12/16 05:45:48;;;;;;;1999.90;999.90;;;8.40;99.90;;;;;;4994976;28;20201;-70
2023/12/16 05:48:14;;;;;;;1999.90;999.90;;;8.40;99.90;;;;;;4994352;28;20197;-69
2023/12/16 05:50:39;;;;;;;1999.90;999.90;;;8.30;99.90;;;;;;4994705;28;20198;-71
2023/12/16 05:53:06;;;;;;;1999.90;999.90;;;8.40;99.90;;;;;;4994836;28;20172;-69
2023/12/16 05:55:33;;;;;;;1999.90;999.90;;;8.40;99.90;;;;;;4994883;28;20831;-70
2023/12/16 05:57:59;;;;;;;1999.90;999.90;;;8.30;99.90;;;;;;4994732;28;20432;-70
2023/12/16 06:00:24;;;;;;;1999.90;999.90;;;8.30;99.90;;;;;;4994473;28;20432;-70
2023/12/16 06:02:50;;;;;;;1999.90;999.90;;;8.30;99.90;;;;;;4994629;28;20410;-70
2023/12/16 06:05:16;;;;;;;1999.90;999.90;;;8.50;99.90;;;;;;4994671;28;20175;-69
2023/12/16 06:07:41;;;;;;;1999.90;999.90;;;8.10;99.90;;;;;;4994583;28;20202;-69
2023/12/16 06:10:07;;;;;;;1999.90;999.90;;;7.90;99.90;;;;;;4994398;28;20272;-69
2023/12/16 06:12:33;;;;;;;1999.90;999.90;;;8.00;99.90;;;;;;4994504;28;20647;-70
2023/12/16 06:14:58;;;;;;;1999.90;999.90;;;8.10;1.00;;;;;;4994426;28;20408;-70
2023/12/16 06:17:24;;;;;;;1999.90;999.90;;;7.90;1.00;;;;;;4994420;28;20166;-71
2023/12/16 06:19:49;;;;;;;1999.90;999.90;;;8.00;1.00;;;;;;4994317;28;20220;-69
2023/12/16 06:22:15;;;;;;;1999.90;999.90;;;8.10;99.90;;;;;;4994308;28;20178;-69
2023/12/16 06:24:40;;;;;;;1999.90;999.90;;;8.10;1.00;;;;;;4994290;28;20209;-69
2023/12/16 06:27:06;;;;;;;1999.90;999.90;;;8.00;1.00;;;;;;4994242;28;20766;-71
2023/12/16 06:29:32;;;;;;;1999.90;999.90;;;8.10;1.00;;;;;;4993893;28;20589;-69
2023/12/16 06:31:58;;;;;;;1999.90;999.90;;;8.10;1.00;;;;;;4994130;28;20546;-69
2023/12/16 06:34:24;;;;;;;1999.90;999.90;;;8.20;1.00;;;;;;4994105;28;20516;-69
2023/12/16 06:36:49;;;;;;;1999.90;999.90;;;8.20;1.00;;;;;;4994091;28;20582;-70
2023/12/16 06:39:15;;;;;;;1999.90;999.90;;;8.20;99.90;;;;;;4993727;28;20212;-69
2023/12/16 06:41:41;;;;;;;1999.90;999.90;;;8.20;99.90;;;;;;4993952;28;20171;-69
2023/12/16 06:44:06;;;;;;;1999.90;999.90;;;8.20;99.90;;;;;;4993829;28;20170;-69
2023/12/16 06:46:32;;;;;;;1999.90;999.90;;;8.10;99.90;;;;;;4993900;28;20256;-69
2023/12/16 06:48:57;;;;;;;1999.90;999.90;;;8.20;99.90;;;;;;4993566;28;20197;-69
2023/12/16 06:51:23;;;;;;;1999.90;999.90;;;8.10;99.90;;;;;;4993735;28;20205;-69
2023/12/16 06:53:49;;;;;;;1999.90;999.90;;;8.10;99.90;;;;;;4993666;28;20176;-71
2023/12/16 06:56:14;;;;;;;1999.90;999.90;;;8.20;99.90;;;;;;4993751;28;20170;-69
2023/12/16 06:58:41;;;;;;;1999.90;999.90;;;8.20;99.90;;;;;;4992848;28;20185;-68
2023/12/16 07:01:11;;;;;;;1999.90;999.90;;;8.20;99.90;;;;;;4993513;28;20269;-70
2023/12/16 07:03:37;;;;;;;1999.90;999.90;;;8.20;99.90;;;;;;4993657;28;20771;-71
2023/12/16 07:06:03;;;;;;;1999.90;999.90;;;8.40;99.90;;;;;;4993497;28;20413;-70
2023/12/16 07:08:29;;;;;;;1999.90;999.90;;;8.30;99.90;;;;;;4993296;28;20537;-70
2023/12/16 07:10:55;;;;;;;1999.90;999.90;;;8.30;99.90;;;;;;4992748;28;20536;-69
2023/12/16 07:13:20;;;;;;;1999.90;999.90;;;8.30;99.90;;;;;;4992623;28;20179;-69
2023/12/16 07:15:46;;;;;;;1999.90;999.90;;;8.20;99.90;;;;;;4993293;28;20169;-69
2023/12/16 07:18:12;;;;;;;1999.90;999.90;;;8.20;99.90;;;;;;4993283;28;20691;-69
2023/12/16 07:20:37;;;;;;;1999.90;999.90;;;8.20;99.90;;;;;;4993130;28;20182;-70
2023/12/16 07:23:04;;;;;;;1999.90;999.90;;;8.20;99.90;;;;;;4993149;28;20278;-69
2023/12/16 07:25:30;;;;;;;1999.90;999.90;;;8.10;99.90;;;;;;4993207;28;20182;-69
2023/12/16 07:27:56;;;;;;;1999.90;999.90;;;8.20;99.90;;;;;;4992992;28;20484;-68
2023/12/16 07:30:21;;;;;;;1999.90;999.90;;;8.10;99.90;;;;;;4992782;28;20462;-70
2023/12/16 07:32:47;;;;;;;1999.90;999.90;;;8.10;99.90;;;;;;4992972;28;20170;-69
2023/12/16 07:35:13;;;;;;;1999.90;999.90;;;7.90;99.90;;;;;;4993127;28;20170;-69
2023/12/16 07:37:42;;;;;;;1999.90;999.90;;;8.10;99.90;;;;;;4993083;28;20201;-69
2023/12/16 07:40:09;;;;;;;1999.90;999.90;;;7.90;99.90;;;;;;4992781;28;20175;-69
2023/12/16 07:42:39;;;;;;;1999.90;999.90;;;8.00;99.90;;;;;;4992793;28;20762;-69
2023/12/16 07:45:05;;;;;;;1999.90;999.90;;;7.90;99.90;;;;;;4992798;28;20405;-69
2023/12/16 07:47:34;;;;;;;1999.90;999.90;;;8.40;99.90;;;;;;4992760;28;20602;-69
2023/12/16 07:50:00;;;;;;;1999.90;999.90;;;7.90;99.90;;;;;;4992449;28;20459;-69
2023/12/16 07:52:27;;;;;;;1999.90;999.90;;;7.90;99.90;;;;;;4992623;28;20405;-69
2023/12/16 07:54:52;;;;;;;1999.90;999.90;;;7.90;99.90;;;;;;4992672;28;20614;-69
2023/12/16 07:57:18;;;;;;;1999.90;999.90;;;7.70;99.90;;;;;;4992094;28;20448;-71
2023/12/16 07:59:43;;;;;;;1999.90;999.90;;;7.80;99.90;;;;;;4992454;28;20554;-69
2023/12/16 08:02:10;;;;;;;1999.90;999.90;;;7.80;99.90;;;;;;4992314;28;20254;-69
2023/12/16 08:04:38;;;;;;;1999.90;999.90;;;7.80;99.90;;;;;;4992747;28;20558;-70
2023/12/16 08:07:03;;;;;;;1999.90;999.90;;;7.80;99.90;;;;;;4992544;28;20882;-69
2023/12/16 08:09:30;;;;;;;1999.90;999.90;;;7.80;99.90;;;;;;4992264;28;20456;-69
2023/12/16 08:11:58;;;;;;;1999.90;999.90;;;7.80;99.90;;;;;;4992067;28;20208;-69
2023/12/16 08:14:24;;;;;;;1999.90;999.90;;;7.80;99.90;;;;;;4992406;28;20436;-69
2023/12/16 08:16:50;;;;;;;1999.90;999.90;;;7.80;99.90;;;;;;4992457;28;20456;-69
2023/12/16 08:19:15;;;;;;;1999.90;999.90;;;7.80;99.90;;;;;;4992204;28;21018;-68
2023/12/16 08:21:41;;;;;;;1999.90;999.90;;;7.80;99.90;;;;;;4992422;28;20549;-69
2023/12/16 08:24:06;;;;;;;1999.90;999.90;;;7.80;1.00;;;;;;4992219;28;20512;-69
2023/12/16 08:26:32;;;;;;;1999.90;999.90;;;7.90;99.90;;;;;;4992554;28;20179;-68
2023/12/16 08:28:57;;;;;;;1999.90;999.90;;;7.90;99.90;;;;;;4992477;28;20197;-69
2023/12/16 08:31:23;;;;;;;1999.90;999.90;;;7.90;99.90;;;;;;4992183;28;20257;-68
2023/12/16 08:33:49;;;;;;;1999.90;999.90;;;7.90;1.00;;;;;;4992242;28;20166;-69
2023/12/16 08:36:14;;;;;;;1999.90;999.90;;;7.90;1.00;;;;;;4992333;28;20278;-69
2023/12/16 08:38:40;;;;;;;1999.90;999.90;;;7.90;99.90;;;;;;4991946;28;20248;-68
2023/12/16 08:41:08;;;;;;;1999.90;999.90;;;7.90;99.90;;;;;;4992161;28;20716;-69
2023/12/16 08:43:34;;;;;;;1999.90;999.90;;;7.90;99.90;;;;;;4992335;28;20677;-69
2023/12/16 08:46:00;;;;;;;1999.90;999.90;;;7.90;99.90;;;;;;4992137;28;20400;-69
2023/12/16 08:48:26;;;;;;;1999.90;999.90;;;7.70;1.00;;;;;;4992159;28;20425;-69
2023/12/16 08:50:52;;;;;;;1999.90;999.90;;;8.00;99.90;;;;;;4991905;28;20704;-68
2023/12/16 08:53:18;;;;;;;1999.90;999.90;;;8.00;99.90;;;;;;4992045;28;20432;-68
2023/12/16 08:55:44;;;;;;;1999.90;999.90;;;8.10;99.90;;;;;;4992139;28;20405;-68
2023/12/16 08:58:10;;;;;;;1999.90;999.90;;;8.10;99.90;;;;;;4992089;28;20421;-69
2023/12/16 09:00:35;;;;;;;1999.90;999.90;;;8.20;1.00;;;;;;4992161;28;20676;-69
2023/12/16 09:03:01;;;;;;;1999.90;999.90;;;8.10;1.00;;;;;;4991893;28;20175;-70
2023/12/16 09:05:28;;;;;;;1999.90;999.90;;;8.20;99.90;;;;;;4992038;28;20174;-68
2023/12/16 09:07:54;;;;;;;1999.90;999.90;;;8.20;1.00;;;;;;4991763;28;20217;-70
2023/12/16 09:10:20;;;;;;;1999.90;999.90;;;8.30;1.00;;;;;;4988414;28;20464;-69
2023/12/16 09:12:47;;;;;;;1999.90;999.90;;;8.30;1.00;;;;;;4990592;28;20434;-70
2023/12/16 09:15:13;;;;;;;1999.90;999.90;;;8.30;1.00;;;;;;4983488;28;20425;-70
2023/12/16 09:17:39;;;;;;;1999.90;999.90;;;8.40;1.00;;;;;;4987670;28;20424;-69
2023/12/16 09:20:05;;;;;;;1999.90;999.90;;;8.70;1.00;;;;;;4985631;28;20184;-69
2023/12/16 09:22:31;;;;;;;1999.90;999.90;;;8.60;1.00;;;;;;4988160;28;20188;-70
2023/12/16 09:24:56;;;;;;;1999.90;999.90;;;8.70;99.90;;;;;;4995137;28;20413;-70
2023/12/16 09:27:22;;;;;;;1999.90;999.90;;;8.80;1.00;;;;;;4995042;28;20174;-70
2023/12/16 09:29:48;;;;;;;1999.90;999.90;;;8.80;99.90;;;;;;4994779;28;20170;-70
2023/12/16 09:32:14;;;;;;;1999.90;999.90;;;8.70;99.90;;;;;;4991153;28;20184;-69
2023/12/16 09:34:41;;;;;;;1999.90;999.90;;;8.80;99.90;;;;;;4994773;28;20230;-70
2023/12/16 09:37:08;;;;;;;1999.90;999.90;;;8.80;99.90;;;;;;4994782;28;20908;-70
2023/12/16 09:39:34;;;;;;;1999.90;999.90;;;8.70;99.90;;;;;;4994380;28;20436;-70
2023/12/16 09:42:02;;;;;;;1999.90;999.90;;;9.00;99.90;;;;;;4994929;28;20416;-70
2023/12/16 09:44:30;;;;;;;1999.90;999.90;;;8.90;1.00;;;;;;4994679;28;20177;-69
2023/12/16 09:46:59;;;;;;;1999.90;999.90;;;9.00;1.00;;;;;;4994537;28;20424;-69
2023/12/16 09:49:26;;;;;;;1999.90;999.90;;;8.90;1.00;;;;;;4994330;28;20468;-70
2023/12/16 09:51:52;;;;;;;1999.90;999.90;;;9.00;99.90;;;;;;4994402;28;20526;-69
2023/12/16 09:54:18;;;;;;;1999.90;999.90;;;9.00;1.00;;;;;;4994434;28;20410;-71
2023/12/16 09:56:48;;;;;;;1999.90;999.90;;;9.00;1.00;;;;;;4994585;28;20422;-69
2023/12/16 09:59:16;;;;;;;1999.90;999.90;;;9.10;1.00;;;;;;4994248;28;20194;-69
2023/12/16 10:01:52;;;;;;;1999.90;999.90;;;9.10;1.00;;;;;;4994223;28;20422;-69
2023/12/16 10:04:18;;;;;;;1999.90;999.90;;;9.20;1.00;;;;;;4994259;28;20468;-70
2023/12/16 10:06:44;;;;;;;1999.90;999.90;;;9.20;1.00;;;;;;4994327;28;20429;-69
2023/12/16 10:09:09;;;;;;;1999.90;999.90;;;9.30;1.00;;;;;;4993728;28;20546;-69
2023/12/16 10:11:41;;;;;;;1999.90;999.90;;;9.40;1.00;;;;;;4994011;28;20297;-70
2023/12/16 10:14:07;;;;;;;1999.90;999.90;;;9.50;99.90;;;;;;4994075;28;20179;-69
2023/12/16 10:16:33;;;;;;;1999.90;999.90;;;9.50;99.90;;;;;;4993909;28;20528;-70
2023/12/16 10:18:59;;;;;;;1999.90;999.90;;;9.70;1.00;;;;;;4993826;28;20200;-69
2023/12/16 10:21:35;;;;;;;1999.90;999.90;;;9.50;99.90;;;;;;4993951;28;20818;-71
2023/12/16 10:24:02;;;;;;;1999.90;999.90;;;9.60;99.90;;;;;;4993795;28;20705;-71
2023/12/16 10:26:35;;;;;;;1999.90;999.90;;;9.70;99.90;;;;;;4993950;28;20409;-69
2023/12/16 10:29:04;;;;;;;1999.90;999.90;;;9.40;99.90;;;;;;4991108;28;20964;-71
2023/12/16 10:31:29;;;;;;;1999.90;999.90;;;9.70;99.90;;;;;;4993247;28;20463;-70
2023/12/16 10:33:55;;;;;;;1999.90;999.90;;;9.80;99.90;;;;;;4993588;28;20493;-70
2023/12/16 10:36:20;;;;;;;1999.90;999.90;;;10.00;99.90;;;;;;4993744;28;20206;-70
2023/12/16 10:38:47;;;;;;;1999.90;999.90;;;9.90;99.90;;;;;;4993330;28;20193;-70
2023/12/16 10:41:12;;;;;;;1999.90;999.90;;;9.90;99.90;;;;;;4993605;28;20659;-69
2023/12/16 10:43:38;;;;;;;1999.90;999.90;;;10.20;99.90;;;;;;4993397;28;20511;-70
2023/12/16 10:46:05;;;;;;;1999.90;999.90;;;10.00;99.90;;;;;;4993364;28;20181;-69
2023/12/16 10:48:35;;;;;;;1999.90;999.90;;;10.20;99.90;;;;;;4993461;28;20192;-70
2023/12/16 10:51:03;;;;;;;1999.90;999.90;;;10.40;99.90;;;;;;4993242;28;20464;-68
2023/12/16 10:53:43;;;;;;;1999.90;999.90;;;10.40;99.90;;;;;;4993110;28;20420;-69
2023/12/16 10:56:37;;;;;;;1999.90;999.90;;;10.30;99.90;;;;;;4993428;28;20471;-69
2023/12/16 10:59:16;;;;;;;1999.90;999.90;;;10.40;99.90;;;;;;4991601;28;20531;-71
2023/12/16 11:01:46;;;;;;;1999.90;999.90;;;10.60;99.90;;;;;;4993045;28;20415;-70
2023/12/16 11:04:16;;;;;;;1999.90;999.90;;;10.60;99.90;;;;;;4993226;28;20477;-69
2023/12/16 11:07:06;;;;;;;1999.90;999.90;;;10.50;13.90;;;;;;4993171;28;20482;-69
2023/12/16 11:09:33;;;;;;;1999.90;999.90;;;10.50;99.90;;;;;;4987701;28;20451;-69
2023/12/16 11:12:01;;;;;;;1999.90;999.90;;;10.60;99.90;;;;;;4992825;28;20490;-69
2023/12/16 11:14:33;;;;;;;1999.90;999.90;;;10.50;99.90;;;;;;4993161;28;20918;-69
2023/12/16 11:17:02;;;;;;;1999.90;999.90;;;10.70;99.90;;;;;;4992919;28;20441;-71
2023/12/16 11:19:42;;;;;;;1999.90;999.90;;;10.70;99.90;;;;;;4992602;28;20523;-70
2023/12/16 11:22:10;;;;;;;1999.90;999.90;;;10.90;99.90;;;;;;4992756;28;20546;-69
2023/12/16 11:24:40;;;;;;;1999.90;999.90;;;11.20;99.90;;;;;;4992894;28;21027;-70
2023/12/16 11:27:06;;;;;;;1999.90;999.90;;;11.50;99.90;;;;;;4992795;28;20419;-69
2023/12/16 11:29:32;;;;;;;1999.90;999.90;;;11.90;99.90;;;;;;4992249;28;20932;-70
2023/12/16 11:32:00;;;;;;;1999.90;999.90;;;12.10;1.00;;;;;;4992571;28;20542;-72
2023/12/16 11:34:41;;;;;;;1999.90;999.90;;;12.20;99.90;;;;;;4992839;28;20707;-69
2023/12/16 11:37:07;;;;;;;1999.90;999.90;;;12.40;99.90;;;;;;4992459;28;20408;-70
2023/12/16 11:39:45;;;;;;;1999.90;999.90;;;12.90;99.90;;;;;;4992383;28;20438;-71
2023/12/16 11:42:13;;;;;;;1999.90;999.90;;;13.50;99.90;;;;;;4992194;28;20162;-71
2023/12/16 11:44:48;;;;;;;1999.90;999.90;;;13.70;1.00;;;;;;4992290;28;20412;-70
2023/12/16 11:47:24;;;;;;;1999.90;999.90;;;13.60;1.00;;;;;;4992481;28;20479;-71
2023/12/16 11:49:54;;;;;;;1999.90;999.90;;;13.40;1.00;;;;;;4992208;28;20413;-70
2023/12/16 11:52:22;;;;;;;1999.90;999.90;;;13.20;1.00;;;;;;4992151;28;20463;-70
2023/12/16 11:54:55;;;;;;;1999.90;999.90;;;12.90;1.00;;;;;;4992593;28;20402;-71
2023/12/16 11:57:22;;;;;;;1999.90;999.90;;;12.00;1.00;;;;;;4992407;28;20393;-70
2023/12/16 11:59:49;;;;;;;1999.90;999.90;;;12.10;1.00;;;;;;4992097;28;20412;-71
2023/12/16 12:02:15;;;;;;;1999.90;999.90;;;11.70;1.00;;;;;;4992147;28;20775;-71
2023/12/16 12:04:41;;;;;;;1999.90;999.90;;;11.50;1.00;;;;;;4992688;28;20408;-70
2023/12/16 12:07:07;;;;;;;1999.90;999.90;;;11.40;1.00;;;;;;4991884;28;20439;-70